Time;durP1;ratioP1;P1;durP2;ratioP2;P2;SDS_P1;SDS_P2;PMS_P1;PMS_P2;Temp;Humidity;BMP_temperature;BMP_pressure;BME280_temperature;BME280_humidity;BME280_pressure;Samples;Min_cycle;Max_cycle;Signal;HPM_P1;HPM_P2
2023/04/22 00:00:07;;;;;;;6.35;4.45;;;14.50;99.90;;;;;;6185659;23;20046;-86
2023/04/22 00:02:35;;;;;;;6.72;4.60;;;14.40;99.90;;;;;;6185884;23;20040;-86
2023/04/22 00:05:02;;;;;;;6.60;4.43;;;14.40;99.90;;;;;;6184443;23;20016;-86
2023/04/22 00:07:28;;;;;;;6.78;4.35;;;14.40;99.90;;;;;;6183931;23;20071;-86
2023/04/22 00:09:53;;;;;;;6.95;4.70;;;14.30;99.90;;;;;;6183904;23;20017;-86
2023/04/22 00:12:19;;;;;;;5.97;4.45;;;14.30;99.90;;;;;;6186043;23;20027;-86
2023/04/22 00:14:45;;;;;;;7.63;4.70;;;14.30;99.90;;;;;;6183545;23;20457;-87
2023/04/22 00:17:11;;;;;;;6.13;4.07;;;14.20;99.90;;;;;;6186055;23;20020;-86
2023/04/22 00:19:36;;;;;;;6.43;4.47;;;14.20;99.90;;;;;;6184907;23;20013;-86
2023/04/22 00:22:02;;;;;;;6.78;4.65;;;14.20;99.90;;;;;;6183370;23;20013;-86
2023/04/22 00:24:28;;;;;;;7.68;4.65;;;14.10;99.90;;;;;;6183761;23;20067;-86
2023/04/22 00:26:54;;;;;;;6.35;4.78;;;14.10;99.90;;;;;;6184932;23;20015;-86
2023/04/22 00:29:20;;;;;;;6.43;4.78;;;14.00;99.90;;;;;;6184160;23;20044;-86
2023/04/22 00:31:45;;;;;;;6.40;4.50;;;14.00;99.90;;;;;;6185401;23;20446;-85
2023/04/22 00:34:11;;;;;;;6.93;4.90;;;14.00;99.90;;;;;;6184894;23;20009;-86
2023/04/22 00:36:36;;;;;;;7.47;5.05;;;13.90;99.90;;;;;;6183831;23;20025;-86
2023/04/22 00:39:02;;;;;;;6.88;5.22;;;13.90;99.90;;;;;;6184102;23;20017;-86
2023/04/22 00:41:29;;;;;;;7.88;5.10;;;13.90;99.90;;;;;;6183556;23;20025;-86
2023/04/22 00:43:56;;;;;;;6.60;5.05;;;13.80;99.90;;;;;;6183438;23;20017;-86
2023/04/22 00:46:21;;;;;;;6.72;5.05;;;13.80;99.90;;;;;;6185914;23;20017;-86
2023/04/22 00:48:48;;;;;;;7.05;5.35;;;13.80;99.90;;;;;;6183057;23;20319;-86
2023/04/22 00:51:13;;;;;;;7.75;5.75;;;13.70;99.90;;;;;;6183619;23;20013;-86
2023/04/22 00:53:39;;;;;;;7.85;6.00;;;13.70;99.90;;;;;;6185118;23;20016;-85
2023/04/22 00:56:05;;;;;;;7.90;5.28;;;13.70;99.90;;;;;;6183442;23;20021;-86
2023/04/22 00:58:31;;;;;;;6.88;5.47;;;13.60;99.90;;;;;;6185283;23;20013;-86
2023/04/22 01:00:57;;;;;;;8.38;5.45;;;13.60;99.90;;;;;;6183675;23;20331;-87
2023/04/22 01:03:25;;;;;;;7.30;5.80;;;13.50;99.90;;;;;;6183227;23;20028;-87
2023/04/22 01:05:51;;;;;;;7.65;5.60;;;13.50;99.90;;;;;;6183478;23;20087;-87
2023/04/22 01:08:17;;;;;;;9.25;6.00;;;13.40;99.90;;;;;;6184202;23;20098;-86
2023/04/22 01:10:42;;;;;;;8.65;6.55;;;13.40;99.90;;;;;;6183217;23;20017;-87
2023/04/22 01:13:08;;;;;;;7.90;6.43;;;13.40;99.90;;;;;;6184902;23;20017;-87
2023/04/22 01:15:34;;;;;;;8.98;5.97;;;13.40;99.90;;;;;;6183634;23;20438;-87
2023/04/22 01:18:01;;;;;;;7.85;6.10;;;13.40;99.90;;;;;;6183399;23;20040;-86
2023/04/22 01:20:30;;;;;;;7.28;5.88;;;13.30;99.90;;;;;;6183353;23;20017;-86
2023/04/22 01:22:57;;;;;;;8.90;5.93;;;13.30;99.90;;;;;;6183460;23;20017;-86
2023/04/22 01:25:26;;;;;;;7.90;6.10;;;13.30;99.90;;;;;;6185264;23;20017;-86
2023/04/22 01:27:52;;;;;;;8.60;6.07;;;13.20;99.90;;;;;;6185065;23;20021;-86
2023/04/22 01:30:18;;;;;;;11.77;6.53;;;13.20;99.90;;;;;;6184957;23;20017;-86
2023/04/22 01:32:45;;;;;;;8.15;6.03;;;13.20;99.90;;;;;;6183271;23;20064;-86
2023/04/22 01:35:10;;;;;;;7.57;6.18;;;13.10;99.90;;;;;;6183594;23;20021;-87
2023/04/22 01:37:36;;;;;;;7.88;6.30;;;13.10;99.90;;;;;;6183056;23;20071;-86
2023/04/22 01:40:06;;;;;;;7.45;6.18;;;13.10;99.90;;;;;;6185509;23;20086;-86
2023/04/22 01:42:32;;;;;;;10.02;6.30;;;13.10;99.90;;;;;;6185294;23;20071;-86
2023/04/22 01:44:58;;;;;;;7.20;5.97;;;13.00;99.90;;;;;;6184839;23;20429;-86
2023/04/22 01:47:24;;;;;;;7.55;6.40;;;13.00;99.90;;;;;;6183511;23;20017;-86
2023/04/22 01:49:50;;;;;;;8.48;6.53;;;13.00;99.90;;;;;;6183343;23;20399;-86
2023/04/22 01:52:16;;;;;;;9.13;6.40;;;13.00;99.90;;;;;;6185039;23;20013;-85
2023/04/22 01:54:42;;;;;;;7.68;6.25;;;12.90;99.90;;;;;;6183316;23;20052;-85
2023/04/22 01:57:10;;;;;;;7.70;5.78;;;12.90;99.90;;;;;;6183764;23;20013;-86
2023/04/22 01:59:36;;;;;;;7.75;5.88;;;12.90;99.90;;;;;;6182424;23;20068;-86
2023/04/22 02:02:01;;;;;;;8.38;6.60;;;12.80;99.90;;;;;;6182707;23;20469;-86
2023/04/22 02:04:27;;;;;;;10.07;6.32;;;12.80;99.90;;;;;;6183149;23;20097;-85
2023/04/22 02:06:52;;;;;;;8.02;6.15;;;12.80;99.90;;;;;;6184201;23;20081;-86
2023/04/22 02:09:18;;;;;;;8.73;6.22;;;12.80;99.90;;;;;;6185018;23;20028;-86
2023/04/22 02:11:43;;;;;;;7.57;6.07;;;12.70;99.90;;;;;;6183323;23;20056;-86
2023/04/22 02:14:09;;;;;;;8.23;6.10;;;12.70;99.90;;;;;;6182663;23;20013;-86
2023/04/22 02:16:34;;;;;;;7.80;6.28;;;12.70;99.90;;;;;;6184243;23;20032;-86
2023/04/22 02:19:00;;;;;;;7.10;5.85;;;12.70;99.90;;;;;;6185178;23;20434;-86
2023/04/22 02:21:31;;;;;;;8.05;6.47;;;12.60;99.90;;;;;;6182728;23;20093;-86
2023/04/22 02:23:56;;;;;;;9.70;6.15;;;12.60;99.90;;;;;;6184649;23;20097;-86
2023/04/22 02:26:23;;;;;;;7.00;6.00;;;12.60;99.90;;;;;;6185163;23;20052;-86
2023/04/22 02:28:49;;;;;;;8.90;6.55;;;12.50;99.90;;;;;;6182984;23;20020;-86
2023/04/22 02:31:15;;;;;;;8.32;6.38;;;12.50;99.90;;;;;;6185367;23;20093;-86
2023/04/22 02:33:40;;;;;;;8.65;6.72;;;12.50;99.90;;;;;;6184335;23;20377;-86
2023/04/22 02:36:06;;;;;;;7.63;6.55;;;12.40;99.90;;;;;;6183257;23;20063;-86
2023/04/22 02:38:31;;;;;;;8.23;6.15;;;12.40;99.90;;;;;;6182597;23;20032;-86
2023/04/22 02:40:57;;;;;;;8.70;6.68;;;12.30;99.90;;;;;;6184156;23;20021;-86
2023/04/22 02:43:23;;;;;;;7.32;6.10;;;12.30;99.90;;;;;;6184920;23;20017;-86
2023/04/22 02:45:48;;;;;;;8.60;6.82;;;12.30;99.90;;;;;;6185025;23;20464;-87
2023/04/22 02:48:14;;;;;;;9.95;6.47;;;12.20;99.90;;;;;;6186485;23;20013;-85
2023/04/22 02:50:40;;;;;;;8.32;6.72;;;12.20;99.90;;;;;;6184547;23;20502;-86
2023/04/22 02:53:06;;;;;;;8.70;6.90;;;12.10;99.90;;;;;;6187048;23;20067;-86
2023/04/22 02:55:32;;;;;;;8.93;6.45;;;12.10;99.90;;;;;;6184044;23;20016;-86
2023/04/22 02:57:57;;;;;;;9.80;6.90;;;12.10;99.90;;;;;;6184848;23;20036;-86
2023/04/22 03:00:23;;;;;;;9.45;7.07;;;12.10;99.90;;;;;;6186531;23;20092;-86
2023/04/22 03:02:49;;;;;;;9.07;6.65;;;12.00;99.90;;;;;;6183935;23;20009;-86
2023/04/22 03:05:14;;;;;;;8.57;6.55;;;12.00;99.90;;;;;;6186393;23;20071;-87
2023/04/22 03:07:40;;;;;;;9.05;7.25;;;11.90;99.90;;;;;;6184921;23;20016;-87
2023/04/22 03:10:08;;;;;;;7.82;6.53;;;11.90;99.90;;;;;;6186528;23;20013;-87
2023/04/22 03:12:33;;;;;;;10.30;6.53;;;11.80;99.90;;;;;;6185333;23;20028;-86
2023/04/22 03:14:59;;;;;;;7.63;6.35;;;11.80;99.90;;;;;;6184739;23;20014;-86
2023/04/22 03:17:25;;;;;;;10.07;7.05;;;11.80;99.90;;;;;;6184453;23;20100;-86
2023/04/22 03:19:50;;;;;;;8.77;6.78;;;11.80;99.90;;;;;;6186123;23;20059;-87
2023/04/22 03:22:16;;;;;;;8.85;6.88;;;11.70;99.90;;;;;;6185072;23;20021;-86
2023/04/22 03:24:41;;;;;;;8.88;7.00;;;11.70;99.90;;;;;;6185687;23;20446;-86
2023/04/22 03:27:09;;;;;;;8.82;7.15;;;11.70;99.90;;;;;;6184338;23;20021;-86
2023/04/22 03:29:34;;;;;;;8.05;6.75;;;11.70;99.90;;;;;;6186994;23;20096;-86
2023/04/22 03:32:00;;;;;;;9.10;6.85;;;11.70;99.90;;;;;;6186030;23;20044;-86
2023/04/22 03:34:25;;;;;;;8.27;6.78;;;11.70;99.90;;;;;;6184575;23;20120;-85
2023/04/22 03:36:51;;;;;;;8.48;6.90;;;11.60;99.90;;;;;;6185564;23;20477;-86
2023/04/22 03:39:17;;;;;;;8.75;6.45;;;11.60;99.90;;;;;;6184446;23;20350;-86
2023/04/22 03:41:42;;;;;;;8.55;6.65;;;11.50;99.90;;;;;;6186186;23;20009;-85
2023/04/22 03:44:08;;;;;;;7.57;6.53;;;11.50;99.90;;;;;;6184313;23;20449;-85
2023/04/22 03:46:33;;;;;;;8.45;6.40;;;11.50;99.90;;;;;;6185732;23;20020;-86
2023/04/22 03:48:59;;;;;;;7.97;6.60;;;11.50;99.90;;;;;;6184408;23;20023;-86
2023/04/22 03:51:24;;;;;;;7.80;6.18;;;11.40;99.90;;;;;;6185915;23;20009;-86
2023/04/22 03:53:50;;;;;;;8.60;6.63;;;11.40;99.90;;;;;;6184050;23;20021;-86
2023/04/22 03:56:16;;;;;;;7.95;6.63;;;11.40;99.90;;;;;;6186322;23;20005;-86
2023/04/22 03:58:41;;;;;;;7.78;6.43;;;11.40;99.90;;;;;;6185171;23;20092;-86
2023/04/22 04:01:07;;;;;;;8.75;7.00;;;11.30;99.90;;;;;;6184435;23;20454;-86
2023/04/22 04:03:32;;;;;;;7.20;6.00;;;11.30;99.90;;;;;;6185421;23;20072;-86
2023/04/22 04:05:58;;;;;;;10.65;6.43;;;11.30;99.90;;;;;;6185696;23;20009;-86
2023/04/22 04:08:23;;;;;;;7.28;5.95;;;11.20;99.90;;;;;;6185625;23;20017;-86
2023/04/22 04:10:49;;;;;;;9.38;6.22;;;11.20;99.90;;;;;;6183976;23;20071;-86
2023/04/22 04:13:15;;;;;;;8.20;6.30;;;11.20;99.90;;;;;;6185202;23;20045;-87
2023/04/22 04:15:40;;;;;;;8.15;6.15;;;11.20;99.90;;;;;;6185641;23;20021;-86
2023/04/22 04:18:06;;;;;;;8.00;6.20;;;11.10;99.90;;;;;;6183942;23;20316;-86
2023/04/22 04:20:32;;;;;;;6.78;5.68;;;11.10;99.90;;;;;;6183540;23;20028;-86
2023/04/22 04:22:58;;;;;;;7.93;5.93;;;11.10;99.90;;;;;;6183819;23;20021;-86
2023/04/22 04:25:23;;;;;;;7.60;5.68;;;11.00;99.90;;;;;;6186258;23;20013;-86
2023/04/22 04:27:50;;;;;;;7.40;5.97;;;11.00;99.90;;;;;;6183063;23;20097;-85
2023/04/22 04:30:16;;;;;;;7.82;5.78;;;11.00;99.90;;;;;;6183941;23;20488;-86
2023/04/22 04:32:44;;;;;;;8.20;6.07;;;10.90;99.90;;;;;;6183900;23;20021;-86
2023/04/22 04:35:13;;;;;;;7.22;6.15;;;10.90;99.90;;;;;;6184901;23;20330;-86
2023/04/22 04:37:39;;;;;;;9.27;6.00;;;10.90;99.90;;;;;;6185618;23;20028;-85
2023/04/22 04:40:06;;;;;;;8.88;6.18;;;10.80;99.90;;;;;;6185444;23;20072;-85
2023/04/22 04:42:32;;;;;;;7.68;6.13;;;10.80;99.90;;;;;;6183518;23;20381;-86
2023/04/22 04:44:58;;;;;;;8.85;6.20;;;10.80;99.90;;;;;;6184139;23;20028;-85
2023/04/22 04:47:24;;;;;;;7.95;6.70;;;10.80;99.90;;;;;;6183378;23;20089;-86
2023/04/22 04:49:52;;;;;;;9.10;6.80;;;10.80;99.90;;;;;;6185548;23;20036;-85
2023/04/22 04:52:18;;;;;;;8.82;6.80;;;10.70;99.90;;;;;;6185989;23;20060;-85
2023/04/22 04:54:44;;;;;;;8.88;6.10;;;10.70;99.90;;;;;;6184763;23;20028;-85
2023/04/22 04:57:09;;;;;;;9.65;6.35;;;10.70;99.90;;;;;;6183977;23;20408;-86
2023/04/22 04:59:35;;;;;;;8.35;6.82;;;10.70;99.90;;;;;;6185451;23;20053;-85
2023/04/22 05:02:00;;;;;;;8.75;7.10;;;10.70;99.90;;;;;;6184812;23;20020;-86
2023/04/22 05:04:26;;;;;;;8.27;6.45;;;10.60;99.90;;;;;;6183355;23;20047;-86
2023/04/22 05:06:52;;;;;;;10.43;6.93;;;10.60;99.90;;;;;;6185545;23;20021;-86
2023/04/22 05:09:17;;;;;;;8.35;6.13;;;10.60;99.90;;;;;;6183090;23;20040;-86
2023/04/22 05:11:43;;;;;;;8.57;6.80;;;10.60;99.90;;;;;;6183636;23;20095;-86
2023/04/22 05:14:09;;;;;;;8.27;6.70;;;10.60;99.90;;;;;;6183744;23;20076;-86
2023/04/22 05:16:34;;;;;;;8.93;6.90;;;10.60;99.90;;;;;;6184624;23;20017;-85
2023/04/22 05:19:00;;;;;;;9.70;7.43;;;10.60;99.90;;;;;;6184321;23;20092;-86
2023/04/22 05:21:26;;;;;;;9.35;7.28;;;10.60;99.90;;;;;;6185569;23;20013;-87
2023/04/22 05:23:51;;;;;;;8.18;6.15;;;10.60;99.90;;;;;;6183495;23;20420;-85
2023/04/22 05:26:17;;;;;;;8.77;6.60;;;10.50;99.90;;;;;;6185233;23;20025;-86
2023/04/22 05:28:45;;;;;;;9.02;6.60;;;10.50;99.90;;;;;;6185735;23;20044;-86
2023/04/22 05:31:11;;;;;;;8.73;6.45;;;10.50;99.90;;;;;;6182974;23;20430;-86
2023/04/22 05:33:37;;;;;;;9.30;7.30;;;10.50;99.90;;;;;;6184353;23;20052;-85
2023/04/22 05:36:02;;;;;;;8.40;6.45;;;10.50;99.90;;;;;;6186667;23;20024;-85
2023/04/22 05:38:28;;;;;;;8.32;6.65;;;10.40;99.90;;;;;;6182945;23;20017;-86
2023/04/22 05:40:53;;;;;;;8.45;7.10;;;10.50;99.90;;;;;;6183590;23;20063;-86
2023/04/22 05:43:19;;;;;;;7.93;6.15;;;10.40;99.90;;;;;;6183464;23;20013;-85
2023/04/22 05:45:45;;;;;;;8.70;6.32;;;10.40;99.90;;;;;;6182216;23;20385;-85
2023/04/22 05:48:10;;;;;;;8.75;6.47;;;10.40;99.90;;;;;;6185187;23;20013;-87
2023/04/22 05:50:36;;;;;;;8.07;6.70;;;10.40;99.90;;;;;;6182681;23;20013;-87
2023/04/22 05:53:01;;;;;;;8.15;6.60;;;10.40;99.90;;;;;;6183118;23;20017;-84
2023/04/22 05:55:27;;;;;;;8.35;6.50;;;10.40;99.90;;;;;;6183527;23;20027;-86
2023/04/22 05:57:52;;;;;;;8.77;6.45;;;10.40;99.90;;;;;;6183126;23;20323;-86
2023/04/22 06:00:18;;;;;;;8.48;6.78;;;10.40;99.90;;;;;;6183118;23;20346;-85
2023/04/22 06:02:44;;;;;;;9.00;6.47;;;10.40;99.90;;;;;;6183533;23;20024;-86
2023/04/22 06:05:09;;;;;;;8.27;6.55;;;10.40;99.90;;;;;;6183607;23;20020;-85
2023/04/22 06:07:39;;;;;;;7.63;5.97;;;10.40;99.90;;;;;;6184706;23;20044;-86
2023/04/22 06:10:05;;;;;;;9.00;5.85;;;10.40;99.90;;;;;;6183888;23;20092;-87
2023/04/22 06:12:32;;;;;;;9.05;7.05;;;10.40;99.90;;;;;;6182100;23;20337;-87
2023/04/22 06:14:58;;;;;;;10.32;6.50;;;10.40;99.90;;;;;;6183672;23;20029;-87
2023/04/22 06:17:23;;;;;;;12.48;8.15;;;10.40;99.90;;;;;;6185306;23;20020;-86
2023/04/22 06:19:49;;;;;;;11.75;8.50;;;10.40;99.90;;;;;;6181729;23;20020;-86
2023/04/22 06:22:14;;;;;;;8.80;6.90;;;10.50;99.90;;;;;;6183792;23;20489;-86
2023/04/22 06:24:40;;;;;;;11.13;7.43;;;10.50;99.90;;;;;;6184701;23;20048;-87
2023/04/22 06:27:06;;;;;;;10.93;8.10;;;10.50;99.90;;;;;;6184887;23;20017;-86
2023/04/22 06:29:31;;;;;;;10.40;7.95;;;10.50;99.90;;;;;;6184190;23;20020;-87
2023/04/22 06:31:57;;;;;;;12.07;8.02;;;10.50;99.90;;;;;;6185039;23;20099;-84
2023/04/22 06:34:23;;;;;;;10.85;8.55;;;10.60;99.90;;;;;;6184459;23;20013;-84
2023/04/22 06:36:50;;;;;;;10.10;8.18;;;10.60;99.90;;;;;;6184509;23;20084;-84
2023/04/22 06:39:15;;;;;;;10.85;8.85;;;10.60;99.90;;;;;;6187211;23;20434;-86
2023/04/22 06:41:43;;;;;;;10.70;9.00;;;10.60;99.90;;;;;;6186181;23;20017;-87
2023/04/22 06:44:08;;;;;;;11.75;9.75;;;10.70;99.90;;;;;;6186974;23;20020;-87
2023/04/22 06:46:34;;;;;;;11.18;9.35;;;10.70;99.90;;;;;;6184442;23;20017;-86
2023/04/22 06:49:00;;;;;;;12.75;9.73;;;10.70;99.90;;;;;;6184964;23;20009;-85
2023/04/22 06:51:26;;;;;;;12.88;9.95;;;10.70;99.90;;;;;;6186644;23;20020;-85
2023/04/22 06:53:51;;;;;;;12.77;10.52;;;10.70;99.90;;;;;;6186562;23;20028;-85
2023/04/22 06:56:17;;;;;;;12.95;9.10;;;10.80;99.90;;;;;;6185201;23;20468;-89
2023/04/22 06:58:43;;;;;;;14.15;10.65;;;10.80;99.90;;;;;;6185807;23;20016;-89
2023/04/22 07:01:08;;;;;;;12.45;10.27;;;10.80;99.90;;;;;;6186884;23;20437;-94
2023/04/22 07:03:35;;;;;;;15.65;11.90;;;10.80;99.90;;;;;;6189967;23;20052;-94
2023/04/22 07:06:00;;;;;;;14.68;12.55;;;10.90;99.90;;;;;;6190648;23;20050;-92
2023/04/22 07:08:26;;;;;;;15.68;13.40;;;10.90;99.90;;;;;;6186931;23;20017;-92
2023/04/22 07:10:52;;;;;;;17.95;13.63;;;10.90;99.90;;;;;;6188660;23;20017;-93
2023/04/22 07:13:17;;;;;;;10.95;9.10;;;10.90;99.90;;;;;;6187526;23;20480;-93
2023/04/22 07:15:45;;;;;;;14.40;11.45;;;11.00;99.90;;;;;;6188680;23;20442;-93
2023/04/22 07:18:10;;;;;;;13.73;10.70;;;11.00;99.90;;;;;;6188940;23;20017;-91
2023/04/22 07:20:36;;;;;;;14.40;12.82;;;11.00;99.90;;;;;;6186623;23;20047;-94
2023/04/22 07:23:01;;;;;;;16.45;13.68;;;11.10;99.90;;;;;;6186286;23;20017;-94
2023/04/22 07:25:27;;;;;;;16.30;11.93;;;11.10;99.90;;;;;;6189819;23;20055;-94
2023/04/22 07:27:53;;;;;;;19.42;14.23;;;11.10;99.90;;;;;;6188816;23;20013;-94
2023/04/22 07:30:18;;;;;;;13.85;11.40;;;11.20;99.90;;;;;;6190689;23;20460;-93
2023/04/22 07:32:44;;;;;;;13.07;11.55;;;11.20;99.90;;;;;;6187409;23;20009;-93
2023/04/22 07:35:09;;;;;;;11.93;10.60;;;11.20;99.90;;;;;;6187955;23;20365;-94
2023/04/22 07:37:35;;;;;;;14.02;12.15;;;11.30;99.90;;;;;;6188158;23;20036;-94
2023/04/22 07:40:01;;;;;;;11.85;10.38;;;11.30;99.90;;;;;;6188752;23;20016;-94
2023/04/22 07:42:26;;;;;;;13.35;11.95;;;11.40;99.90;;;;;;6187787;23;20017;-95
2023/04/22 07:44:52;;;;;;;17.23;14.38;;;11.40;99.90;;;;;;6187736;23;20108;-92
2023/04/22 07:47:17;;;;;;;16.95;13.73;;;11.40;99.90;;;;;;6187170;23;20021;-93
2023/04/22 07:49:44;;;;;;;14.95;13.32;;;11.50;99.90;;;;;;6187910;23;20083;-92
2023/04/22 07:52:10;;;;;;;17.42;13.82;;;11.50;99.90;;;;;;6185632;23;20017;-92
2023/04/22 07:54:35;;;;;;;14.75;11.98;;;11.60;99.90;;;;;;6185502;23;20410;-92
2023/04/22 07:57:01;;;;;;;16.52;12.45;;;11.60;99.90;;;;;;6187595;23;20013;-91
2023/04/22 07:59:26;;;;;;;14.65;12.75;;;11.60;99.90;;;;;;6186320;23;20045;-92
2023/04/22 08:01:52;;;;;;;13.90;11.68;;;11.70;99.90;;;;;;6187587;23;20136;-92
2023/04/22 08:04:21;;;;;;;15.10;12.05;;;11.70;99.90;;;;;;6185382;23;20028;-92
2023/04/22 08:06:47;;;;;;;14.98;11.88;;;11.80;99.90;;;;;;6187488;23;20020;-91
2023/04/22 08:09:12;;;;;;;13.43;10.95;;;11.80;99.90;;;;;;6186513;23;20017;-92
2023/04/22 08:11:38;;;;;;;14.13;12.50;;;11.90;99.90;;;;;;6188096;23;20017;-94
2023/04/22 08:14:03;;;;;;;16.38;13.65;;;11.90;99.90;;;;;;6188782;23;20024;-94
2023/04/22 08:16:29;;;;;;;14.88;12.80;;;12.00;99.90;;;;;;6186237;23;20385;-90
2023/04/22 08:18:56;;;;;;;14.48;12.45;;;12.00;99.90;;;;;;6186496;23;20041;-96
2023/04/22 08:21:22;;;;;;;15.50;11.77;;;12.10;99.90;;;;;;6187251;23;20008;-91
2023/04/22 08:23:47;;;;;;;16.50;12.23;;;12.20;99.90;;;;;;6188996;23;20330;-93
2023/04/22 08:26:15;;;;;;;17.13;12.20;;;12.30;99.90;;;;;;6187108;23;20013;-94
2023/04/22 08:28:41;;;;;;;14.75;12.63;;;12.40;99.90;;;;;;6186483;23;20021;-94
2023/04/22 08:31:09;;;;;;;15.05;11.75;;;12.50;99.90;;;;;;6188346;23;20013;-94
2023/04/22 08:33:34;;;;;;;16.58;12.65;;;12.50;99.90;;;;;;6186668;23;20016;-94
2023/04/22 08:36:02;;;;;;;15.52;12.45;;;12.60;99.90;;;;;;6186757;23;20414;-94
2023/04/22 08:38:28;;;;;;;15.63;12.02;;;12.60;99.90;;;;;;6186250;23;20021;-93
2023/04/22 08:40:55;;;;;;;18.13;14.23;;;12.70;99.90;;;;;;6187302;23;20060;-93
2023/04/22 08:43:21;;;;;;;17.73;11.15;;;12.80;99.90;;;;;;6187976;23;20020;-92
2023/04/22 08:45:48;;;;;;;14.25;11.48;;;13.00;99.90;;;;;;6186117;23;20032;-93
2023/04/22 08:48:14;;;;;;;15.25;11.65;;;13.00;99.90;;;;;;6187949;23;20021;-93
2023/04/22 08:50:41;;;;;;;15.45;11.45;;;13.10;99.90;;;;;;6186348;23;20067;-94
2023/04/22 08:53:06;;;;;;;14.13;10.95;;;13.20;99.90;;;;;;6186677;23;20013;-93
2023/04/22 08:55:34;;;;;;;12.80;11.02;;;13.30;99.90;;;;;;6187346;23;20493;-93
2023/04/22 08:58:00;;;;;;;22.42;11.23;;;13.50;99.90;;;;;;6187262;23;20017;-92
2023/04/22 09:00:26;;;;;;;12.48;10.77;;;13.50;99.90;;;;;;6185897;23;20013;-93
2023/04/22 09:02:52;;;;;;;13.32;10.23;;;13.70;99.90;;;;;;6187449;23;20057;-93
2023/04/22 09:05:21;;;;;;;13.25;10.00;;;13.80;99.90;;;;;;6188067;23;20025;-92
2023/04/22 09:07:47;;;;;;;12.68;10.45;;;13.90;99.90;;;;;;6186267;23;20358;-94
2023/04/22 09:10:13;;;;;;;14.85;11.35;;;14.10;99.90;;;;;;6186646;23;20067;-92
2023/04/22 09:12:40;;;;;;;12.32;10.45;;;14.20;99.90;;;;;;6184925;23;20100;-90
2023/04/22 09:15:07;;;;;;;12.50;10.05;;;14.20;99.90;;;;;;6185799;23;20020;-92
2023/04/22 09:17:36;;;;;;;11.25;9.73;;;14.40;99.90;;;;;;6186758;23;20041;-91
2023/04/22 09:20:04;;;;;;;11.48;9.65;;;14.50;99.90;;;;;;6187309;23;20017;-92
2023/04/22 09:22:39;;;;;;;11.40;9.18;;;14.60;99.90;;;;;;6187022;23;20454;-93
2023/04/22 09:25:05;;;;;;;11.95;9.25;;;14.80;99.90;;;;;;6185354;23;20026;-91
2023/04/22 09:27:32;;;;;;;10.95;9.63;;;14.90;99.90;;;;;;6185396;23;20020;-94
2023/04/22 09:29:58;;;;;;;13.27;9.80;;;15.00;99.90;;;;;;6185988;23;20075;-93
2023/04/22 09:32:25;;;;;;;14.30;9.10;;;15.20;99.90;;;;;;6187840;23;20013;-92
2023/04/22 09:34:52;;;;;;;11.98;9.40;;;15.30;99.90;;;;;;6185483;23;20092;-92
2023/04/22 09:37:24;;;;;;;11.60;9.10;;;15.40;99.90;;;;;;6185134;23;20017;-92
2023/04/22 09:39:50;;;;;;;10.77;9.52;;;15.40;99.90;;;;;;6183985;23;20403;-92
2023/04/22 09:42:17;;;;;;;11.75;8.88;;;15.40;99.90;;;;;;6184971;23;20017;-91
2023/04/22 09:44:53;;;;;;;11.70;9.02;;;15.50;99.90;;;;;;6183886;23;20017;-93
2023/04/22 09:47:19;;;;;;;11.38;8.68;;;15.50;99.70;;;;;;6183385;23;20021;-91
2023/04/22 09:49:48;;;;;;;9.80;8.70;;;15.60;99.70;;;;;;6184402;23;20016;-91
2023/04/22 09:52:25;;;;;;;10.98;8.98;;;15.60;99.80;;;;;;6186673;23;20088;-92
2023/04/22 09:54:51;;;;;;;11.15;8.98;;;15.70;99.80;;;;;;6184742;23;20016;-93
2023/04/22 09:57:17;;;;;;;9.43;8.02;;;15.70;99.80;;;;;;6185365;23;20013;-92
2023/04/22 09:59:43;;;;;;;10.15;8.57;;;15.80;99.40;;;;;;6184069;23;20047;-93
2023/04/22 10:02:09;;;;;;;10.38;8.20;;;15.90;98.90;;;;;;6186451;23;20055;-90
2023/04/22 10:04:35;;;;;;;9.85;8.23;;;15.90;98.60;;;;;;6185751;23;20020;-92
2023/04/22 10:07:03;;;;;;;12.68;9.02;;;16.00;98.50;;;;;;6200029;23;20017;-92
2023/04/22 10:09:29;;;;;;;10.00;8.05;;;16.00;98.60;;;;;;6187273;23;20013;-91
2023/04/22 10:11:59;;;;;;;9.65;7.63;;;16.00;98.30;;;;;;6185928;23;20333;-92
2023/04/22 10:14:25;;;;;;;10.98;8.30;;;16.10;98.40;;;;;;6186494;23;20017;-92
2023/04/22 10:16:57;;;;;;;13.10;7.78;;;16.20;98.50;;;;;;6189964;23;20027;-91
2023/04/22 10:19:25;;;;;;;10.13;8.27;;;16.20;98.50;;;;;;6189234;23;20053;-92
2023/04/22 10:21:58;;;;;;;10.27;8.25;;;16.30;98.20;;;;;;6188376;23;20013;-93
2023/04/22 10:24:32;;;;;;;11.30;7.97;;;16.40;97.90;;;;;;6184765;23;20041;-90
2023/04/22 10:27:01;;;;;;;12.35;8.07;;;16.50;97.80;;;;;;6184039;23;20096;-92
2023/04/22 10:29:35;;;;;;;9.20;7.97;;;16.60;97.60;;;;;;6186968;23;20338;-92
2023/04/22 10:32:16;;;;;;;9.70;8.05;;;16.60;97.50;;;;;;6185437;23;20045;-91
2023/04/22 10:34:43;;;;;;;10.52;7.40;;;16.80;97.30;;;;;;6185512;23;20017;-91
2023/04/22 10:37:10;;;;;;;10.07;7.70;;;16.80;97.00;;;;;;6184435;23;20024;-90
2023/04/22 10:39:37;;;;;;;10.75;7.82;;;17.00;96.80;;;;;;6184014;23;20017;-93
2023/04/22 10:42:05;;;;;;;11.43;7.72;;;17.00;96.40;;;;;;6186347;23;20040;-92
2023/04/22 10:44:51;;;;;;;8.93;8.00;;;17.10;95.90;;;;;;6185969;23;20476;-91
2023/04/22 10:47:34;;;;;;;9.98;7.85;;;17.20;95.70;;;;;;6185164;23;20021;-91
2023/04/22 10:50:26;;;;;;;9.75;7.93;;;17.20;95.60;;;;;;6186420;23;20021;-91
2023/04/22 10:53:02;;;;;;;8.63;7.28;;;17.30;95.50;;;;;;6184033;23;20017;-90
2023/04/22 10:55:59;;;;;;;10.98;7.40;;;17.40;95.70;;;;;;6185773;23;20025;-94
2023/04/22 10:58:25;;;;;;;10.15;7.97;;;17.50;95.10;;;;;;6185934;23;20045;-91
2023/04/22 11:00:58;;;;;;;10.27;7.57;;;17.60;95.20;;;;;;6185462;23;20032;-92
2023/04/22 11:03:29;;;;;;;11.15;7.68;;;17.60;94.80;;;;;;6184453;23;20023;-90
2023/04/22 11:06:14;;;;;;;8.88;7.75;;;17.70;95.30;;;;;;6187583;23;20021;-87
2023/04/22 11:08:44;;;;;;;10.67;8.20;;;17.80;95.20;;;;;;6184445;23;20374;-93
2023/04/22 11:11:12;;;;;;;9.48;7.15;;;17.80;94.70;;;;;;6186358;23;20059;-89
2023/04/22 11:13:42;;;;;;;8.35;6.63;;;17.90;95.10;;;;;;6184298;23;20021;-89
2023/04/22 11:16:08;;;;;;;9.48;7.63;;;17.90;94.70;;;;;;6184747;23;20021;-90
2023/04/22 11:18:34;;;;;;;9.75;7.93;;;18.00;94.40;;;;;;6186730;23;20013;-89
2023/04/22 11:21:07;;;;;;;8.38;6.80;;;18.10;94.60;;;;;;6184599;23;20013;-88
2023/04/22 11:23:33;;;;;;;9.80;6.72;;;18.20;94.40;;;;;;6184830;23;20013;-90
2023/04/22 11:26:04;;;;;;;8.20;7.07;;;18.20;93.80;;;;;;6187303;23;20016;-91
2023/04/22 11:28:30;;;;;;;8.68;6.47;;;18.30;94.00;;;;;;6186558;23;20028;-92
2023/04/22 11:31:06;;;;;;;8.95;6.43;;;18.40;93.30;;;;;;6185319;23;20024;-90
2023/04/22 11:33:37;;;;;;;8.95;6.82;;;18.40;92.70;;;;;;6185299;23;20045;-89
2023/04/22 11:36:03;;;;;;;8.95;6.53;;;18.50;93.10;;;;;;6185135;23;20017;-88
2023/04/22 11:38:29;;;;;;;10.55;6.82;;;18.50;92.60;;;;;;6187617;23;20048;-92
2023/04/22 11:40:57;;;;;;;7.95;6.82;;;18.50;92.60;;;;;;6188539;23;20013;-95
2023/04/22 11:43:23;;;;;;;11.90;7.05;;;18.50;92.30;;;;;;6188585;23;20153;-94
2023/04/22 11:45:49;;;;;;;10.07;7.00;;;18.60;92.20;;;;;;6188889;23;20017;-94
2023/04/22 11:48:15;;;;;;;8.52;6.47;;;18.70;92.00;;;;;;6188133;23;20036;-92
2023/04/22 11:50:43;;;;;;;8.85;6.90;;;18.70;92.20;;;;;;6186259;23;20096;-94
2023/04/22 11:53:20;;;;;;;7.38;5.95;;;18.80;92.10;;;;;;6186818;23;20438;-93
2023/04/22 11:55:49;;;;;;;8.27;6.43;;;18.80;91.10;;;;;;6188253;23;20052;-95
2023/04/22 11:58:23;;;;;;;10.45;6.47;;;18.80;91.10;;;;;;6188352;23;20017;-92
2023/04/22 12:00:50;;;;;;;8.75;5.90;;;18.90;91.40;;;;;;6186396;23;20097;-94
2023/04/22 12:03:21;;;;;;;8.15;6.25;;;19.00;91.30;;;;;;6187074;23;20090;-93
2023/04/22 12:05:57;;;;;;;8.93;7.05;;;19.00;91.60;;;;;;6187821;23;20013;-95
2023/04/22 12:08:35;;;;;;;10.27;7.15;;;19.00;91.40;;;;;;6188087;23;20025;-93
2023/04/22 12:11:06;;;;;;;12.13;6.55;;;19.10;91.60;;;;;;6189568;23;20017;-93
2023/04/22 12:13:41;;;;;;;7.75;6.22;;;19.00;92.40;;;;;;6185906;23;20013;-93
2023/04/22 12:16:12;;;;;;;8.80;7.10;;;19.10;92.00;;;;;;6188786;23;20013;-96
2023/04/22 12:18:40;;;;;;;8.45;6.80;;;19.10;92.10;;;;;;6187385;23;20672;-95
2023/04/22 12:21:06;;;;;;;8.93;7.00;;;19.10;92.10;;;;;;6186852;23;20487;-94
2023/04/22 12:23:48;;;;;;;10.15;7.03;;;19.10;92.00;;;;;;6186499;23;20044;-95
2023/04/22 12:26:15;;;;;;;8.00;6.70;;;19.10;92.10;;;;;;6186761;23;20009;-96
2023/04/22 12:28:42;;;;;;;8.93;6.60;;;19.10;91.90;;;;;;6186933;23;20021;-94
2023/04/22 12:31:09;;;;;;;11.07;7.32;;;19.10;91.30;;;;;;6187042;23;20132;-92
2023/04/22 12:33:36;;;;;;;10.10;7.45;;;19.20;91.50;;;;;;6186135;23;20016;-94
2023/04/22 12:36:01;;;;;;;8.35;7.05;;;19.30;92.30;;;;;;6194030;23;20013;-93
2023/04/22 12:38:27;;;;;;;11.43;7.75;;;19.20;92.00;;;;;;6186996;23;20596;-94